Orrington, Maine
Current Conditions -  °F | °C
As of 10:53 PM on Wednesday 22 Oct 2014 (Local Time) from KBGR Reporting Station
Drizzle Drizzle  
Wind Chill: 40°   Ceiling: 900
Heat Index: 46°   Visibility: 3mi
Dew Point: 44°   Wind: 14mph
Humidity: 93%   Direction: 30°NNE
Pressure: 30.12"   Gusts: NA
Location:  44.73°N, 68.83°W
Report Text: KBGR 230253Z 03012KT 3SM -DZ BR BKN009 OVC013 08/07 A3012 RMK AO2 DZE22B49 SLP201 P0000 60003 T00780067 56013
Loading
Personal Weather Stations






























Interactive Weather Map
Tropical Storm Tracking
New forecast layout! Learn more

10-Day Weather Forecast

Advertisements
Track Severe Weather on mobile